createdAt,value
2023-05-14T00:01:46.497Z,102082.91
2023-05-14T00:04:31.584Z,102088.38
2023-05-14T00:07:16.815Z,102083.47
2023-05-14T00:10:01.975Z,102081.84
2023-05-14T00:12:46.899Z,102079.38
2023-05-14T00:15:34.184Z,102080.47
2023-05-14T00:18:19.637Z,102061.75
2023-05-14T00:21:04.531Z,102073.66
2023-05-14T00:23:49.501Z,102059.97
2023-05-14T00:26:34.327Z,102065.78
2023-05-14T00:29:19.405Z,102053.44
2023-05-14T00:32:04.847Z,102066.09
2023-05-14T00:34:49.891Z,102058.84
2023-05-14T00:37:36.333Z,102044.47
2023-05-14T00:40:26.646Z,102051.13
2023-05-14T00:43:11.901Z,102059.94
2023-05-14T00:45:57.036Z,102034.16
2023-05-14T00:48:42.265Z,102040.63
2023-05-14T00:51:27.638Z,102048.50
2023-05-14T00:54:15.986Z,102032.75
2023-05-14T00:57:02.427Z,102028.44
2023-05-14T00:59:47.553Z,102024.88
2023-05-14T01:02:32.794Z,102010.38
2023-05-14T01:05:18.403Z,102031.19
2023-05-14T01:08:22.307Z,102016.31
2023-05-14T01:11:09.066Z,102033.63
2023-05-14T01:14:24.584Z,102022.34
2023-05-14T01:17:13.094Z,102030.84
2023-05-14T01:20:00.273Z,102031.69
2023-05-14T01:22:45.800Z,102034.31
2023-05-14T01:25:31.396Z,102028.44
2023-05-14T01:28:18.243Z,102018.25
2023-05-14T01:31:08.222Z,102021.66
2023-05-14T01:33:56.493Z,102020.78
2023-05-14T01:36:42.758Z,102009.44
2023-05-14T01:39:28.237Z,102010.28
2023-05-14T01:42:13.526Z,101993.72
2023-05-14T01:44:59.322Z,102009.16
2023-05-14T01:47:44.506Z,102007.69
2023-05-14T01:50:29.426Z,102018.19
2023-05-14T01:53:14.442Z,102012.84
2023-05-14T01:55:59.352Z,102009.84
2023-05-14T01:58:44.282Z,101992.00
2023-05-14T02:01:29.368Z,102004.34
2023-05-14T02:04:14.852Z,101980.13
2023-05-14T02:07:00.445Z,101992.31
2023-05-14T02:09:45.942Z,101994.72
2023-05-14T02:12:30.965Z,101992.09
2023-05-14T02:15:16.356Z,101984.78
2023-05-14T02:18:01.622Z,101991.78
2023-05-14T02:20:47.000Z,101991.25
2023-05-14T02:23:41.052Z,101982.44
2023-05-14T02:26:27.204Z,101977.28
2023-05-14T02:29:12.700Z,101975.66
2023-05-14T02:31:57.762Z,101983.22
2023-05-14T02:34:42.515Z,101976.03
2023-05-14T02:37:27.458Z,101977.13
2023-05-14T02:40:12.406Z,101983.06
2023-05-14T02:42:57.686Z,101971.09
2023-05-14T02:45:43.008Z,101974.19
2023-05-14T02:48:27.964Z,101962.47
2023-05-14T02:51:12.967Z,101976.28
2023-05-14T02:53:57.831Z,101979.97
2023-05-14T02:56:42.961Z,101975.56
2023-05-14T02:59:27.835Z,101971.09
2023-05-14T03:02:13.747Z,101970.16
2023-05-14T03:04:59.181Z,101973.41
2023-05-14T03:07:44.192Z,101951.34
2023-05-14T03:10:29.414Z,101966.25
2023-05-14T03:13:17.844Z,101973.19
2023-05-14T03:16:02.861Z,101978.88
2023-05-14T03:18:47.942Z,101970.84
2023-05-14T03:21:33.062Z,101976.09
2023-05-14T03:24:18.353Z,101972.47
2023-05-14T03:27:03.317Z,101961.09
2023-05-14T03:29:48.681Z,101958.53
2023-05-14T03:32:33.640Z,101939.94
2023-05-14T03:35:19.066Z,101939.94
2023-05-14T03:38:04.529Z,101949.25
2023-05-14T03:40:49.827Z,101950.03
2023-05-14T03:43:35.123Z,101937.09
2023-05-14T03:46:20.040Z,101938.72
2023-05-14T03:49:05.243Z,101939.72
2023-05-14T03:51:50.663Z,101942.19
2023-05-14T03:54:35.860Z,101936.88
2023-05-14T03:57:21.262Z,101921.53
2023-05-14T04:00:07.228Z,101941.91
2023-05-14T04:02:52.202Z,101933.25
2023-05-14T04:05:37.180Z,101945.53
2023-05-14T04:08:22.464Z,101935.41
2023-05-14T04:11:08.280Z,101930.84
2023-05-14T04:13:53.237Z,101948.97
2023-05-14T04:16:38.610Z,101943.19
2023-05-14T04:19:23.669Z,101932.88
2023-05-14T04:22:08.927Z,101949.16
2023-05-14T04:24:54.131Z,101946.28
2023-05-14T04:27:39.783Z,101949.00
2023-05-14T04:30:25.334Z,101956.91
2023-05-14T04:33:10.373Z,101956.91
2023-05-14T04:35:55.924Z,101947.22
2023-05-14T04:38:41.461Z,101947.44
2023-05-14T04:41:26.550Z,101945.19
2023-05-14T04:44:12.930Z,101950.41
2023-05-14T04:46:58.017Z,101937.47
2023-05-14T04:49:43.371Z,101954.75
2023-05-14T04:52:28.539Z,101954.81
2023-05-14T04:55:13.309Z,101941.28
2023-05-14T04:57:58.259Z,101941.19
2023-05-14T05:00:43.688Z,101938.94
2023-05-14T05:03:28.750Z,101911.88
2023-05-14T05:06:13.898Z,101929.72
2023-05-14T05:09:01.257Z,101939.19
2023-05-14T05:11:46.857Z,101946.19
2023-05-14T05:14:31.761Z,101928.59
2023-05-14T05:17:16.879Z,101934.72
2023-05-14T05:20:02.057Z,101951.66
2023-05-14T05:22:47.065Z,101948.09
2023-05-14T05:25:31.971Z,101946.28
2023-05-14T05:28:17.303Z,101929.22
2023-05-14T05:31:02.589Z,101939.41
2023-05-14T05:33:47.930Z,101923.28
2023-05-14T05:36:33.808Z,101927.25
2023-05-14T05:39:19.109Z,101943.44
2023-05-14T05:42:05.485Z,101934.53
2023-05-14T05:44:50.742Z,101940.69
2023-05-14T05:47:36.245Z,101931.56
2023-05-14T05:50:21.757Z,101943.44
2023-05-14T05:53:07.129Z,101937.00
2023-05-14T05:55:52.134Z,101930.50
2023-05-14T05:58:40.541Z,101942.31
2023-05-14T06:01:26.619Z,101941.97
2023-05-14T06:04:11.489Z,101945.94
2023-05-14T06:06:56.385Z,101942.38
2023-05-14T06:09:41.253Z,101938.28
2023-05-14T06:12:26.258Z,101942.75
2023-05-14T06:15:12.228Z,101942.22
2023-05-14T06:17:57.588Z,101944.84
2023-05-14T06:20:42.851Z,101937.16
2023-05-14T06:23:28.045Z,101946.47
2023-05-14T06:26:13.090Z,101942.22
2023-05-14T06:28:59.098Z,101938.00
2023-05-14T06:31:44.342Z,101959.50
2023-05-14T06:34:30.116Z,101951.78
2023-05-14T06:37:15.021Z,101951.34
2023-05-14T06:40:01.230Z,101945.03
2023-05-14T06:42:46.410Z,101933.56
2023-05-14T06:45:33.217Z,101929.63
2023-05-14T06:48:19.148Z,101918.28
2023-05-14T06:51:04.391Z,101932.66
2023-05-14T06:53:49.675Z,101929.09
2023-05-14T06:56:35.084Z,101906.50
2023-05-14T06:59:20.355Z,101911.88
2023-05-14T07:02:05.918Z,101901.00
2023-05-14T07:04:51.088Z,101912.88
2023-05-14T07:07:36.229Z,101903.97
2023-05-14T07:10:21.723Z,101902.41
2023-05-14T07:13:08.204Z,101895.94
2023-05-14T07:15:55.572Z,101899.47
2023-05-14T07:18:40.933Z,101886.84
2023-05-14T07:21:26.114Z,101885.09
2023-05-14T07:24:11.092Z,101872.03
2023-05-14T07:26:57.235Z,101873.59
2023-05-14T07:29:42.561Z,101882.06
2023-05-14T07:32:27.961Z,101882.91
2023-05-14T07:35:13.022Z,101882.59
2023-05-14T07:37:58.439Z,101890.16
2023-05-14T07:40:43.719Z,101880.72
2023-05-14T07:43:28.933Z,101881.72
2023-05-14T07:46:14.704Z,101882.38
2023-05-14T07:48:59.552Z,101884.09
2023-05-14T07:51:44.646Z,101877.91
2023-05-14T07:54:29.550Z,101864.63
2023-05-14T07:57:14.484Z,101879.38
2023-05-14T07:59:59.669Z,101851.75
2023-05-14T08:02:45.059Z,101877.53
2023-05-14T08:05:31.448Z,101886.25
2023-05-14T08:08:17.079Z,101882.19
2023-05-14T08:11:03.552Z,101886.44
2023-05-14T08:13:48.689Z,101888.06
2023-05-14T08:16:33.974Z,101875.53
2023-05-14T08:19:19.312Z,101873.34
2023-05-14T08:22:05.017Z,101879.66
2023-05-14T08:24:49.975Z,101884.75
2023-05-14T08:27:35.105Z,101872.81
2023-05-14T08:30:21.326Z,101874.34
2023-05-14T08:33:06.730Z,101884.84
2023-05-14T08:35:53.005Z,101884.75
2023-05-14T08:38:38.297Z,101886.03
2023-05-14T08:41:23.372Z,101873.94
2023-05-14T08:44:20.067Z,101875.88
2023-05-14T08:47:06.802Z,101873.16
2023-05-14T08:50:04.271Z,101878.59
2023-05-14T08:52:49.759Z,101886.19
2023-05-14T08:55:36.260Z,101868.75
2023-05-14T08:58:21.294Z,101881.94
2023-05-14T09:01:06.669Z,101875.56
2023-05-14T09:03:53.870Z,101870.53
2023-05-14T09:06:40.037Z,101877.13
2023-05-14T09:09:26.650Z,101859.94
2023-05-14T09:12:11.977Z,101884.06
2023-05-14T09:14:56.829Z,101865.81
2023-05-14T09:17:41.750Z,101867.66
2023-05-14T09:20:28.533Z,101877.59
2023-05-14T09:23:13.918Z,101881.13
2023-05-14T09:25:58.987Z,101850.84
2023-05-14T09:28:44.694Z,101876.63
2023-05-14T09:31:31.702Z,101866.69
2023-05-14T09:34:30.502Z,101861.59
2023-05-14T09:37:15.704Z,101855.59
2023-05-14T09:40:06.560Z,101865.38
2023-05-14T09:42:51.462Z,101872.31
2023-05-14T09:45:36.685Z,101853.69
2023-05-14T09:48:22.923Z,101866.38
2023-05-14T09:51:10.005Z,101849.97
2023-05-14T09:53:55.025Z,101848.22
2023-05-14T09:56:40.740Z,101859.66
2023-05-14T09:59:25.877Z,101816.34
2023-05-14T10:02:25.722Z,101858.06
2023-05-14T10:05:13.119Z,101861.69
2023-05-14T10:08:00.011Z,101863.81
2023-05-14T10:10:46.744Z,101856.41
2023-05-14T10:13:39.352Z,101864.44
2023-05-14T10:16:32.002Z,101854.88
2023-05-14T10:19:20.802Z,101857.00
2023-05-14T10:22:11.201Z,101853.25
2023-05-14T10:24:56.855Z,101849.28
2023-05-14T10:27:42.351Z,101861.91
2023-05-14T10:30:27.631Z,101846.47
2023-05-14T10:33:15.455Z,101846.03
2023-05-14T10:36:05.945Z,101851.78
2023-05-14T10:38:55.946Z,101846.06
2023-05-14T10:41:41.583Z,101847.25
2023-05-14T10:44:27.059Z,101835.84
2023-05-14T10:47:11.995Z,101840.34
2023-05-14T10:49:59.864Z,101839.28
2023-05-14T10:52:46.279Z,101834.28
2023-05-14T10:55:31.316Z,101817.16
2023-05-14T10:58:16.319Z,101808.28
2023-05-14T11:01:02.131Z,101802.50
2023-05-14T11:03:47.208Z,101821.34
2023-05-14T11:06:33.036Z,101794.44
2023-05-14T11:09:20.826Z,101811.56
2023-05-14T11:12:06.410Z,101806.47
2023-05-14T11:14:51.858Z,101790.81
2023-05-14T11:17:38.516Z,101792.56
2023-05-14T11:20:23.823Z,101783.25
2023-05-14T11:23:09.149Z,101786.19
2023-05-14T11:25:56.176Z,101783.94
2023-05-14T11:28:41.519Z,101780.94
2023-05-14T11:31:27.632Z,101772.75
2023-05-14T11:34:12.575Z,101768.56
2023-05-14T11:36:57.399Z,101766.63
2023-05-14T11:39:50.576Z,101759.78
2023-05-14T11:42:37.174Z,101747.59
2023-05-14T11:45:29.832Z,101738.56
2023-05-14T11:48:15.012Z,101756.19
2023-05-14T11:51:00.338Z,101744.56
2023-05-14T11:53:46.403Z,101757.84
2023-05-14T11:56:31.814Z,101745.50
2023-05-14T11:59:17.666Z,101733.03
2023-05-14T12:02:05.061Z,101731.47
2023-05-14T12:04:57.634Z,101705.66
2023-05-14T12:07:44.941Z,101713.69
2023-05-14T12:10:30.052Z,101715.59
2023-05-14T12:13:17.304Z,101699.75
2023-05-14T12:16:02.964Z,101718.72
2023-05-14T12:18:48.448Z,101713.41
2023-05-14T12:21:34.806Z,101710.31
2023-05-14T12:24:20.071Z,101704.22
2023-05-14T12:27:05.654Z,101709.31
2023-05-14T12:30:01.953Z,101708.91
2023-05-14T12:32:54.571Z,101711.63
2023-05-14T12:35:40.129Z,101702.09
2023-05-14T12:38:25.462Z,101704.41
2023-05-14T12:41:10.333Z,101706.56
2023-05-14T12:43:55.414Z,101709.31
2023-05-14T12:46:40.521Z,101702.63
2023-05-14T12:49:25.878Z,101696.44
2023-05-14T12:54:59.078Z,101687.84
2023-05-14T12:57:44.343Z,101688.81
2023-05-14T13:00:29.725Z,101675.78
2023-05-14T13:03:15.175Z,101671.94
2023-05-14T13:06:00.448Z,101675.56
2023-05-14T13:08:46.107Z,101652.22
2023-05-14T13:11:32.108Z,101681.13
2023-05-14T13:14:18.422Z,101665.06
2023-05-14T13:17:05.900Z,101667.66
2023-05-14T13:19:51.112Z,101658.25
2023-05-14T13:22:36.110Z,101653.44
2023-05-14T13:25:21.448Z,101644.28
2023-05-14T13:28:06.861Z,101651.38
2023-05-14T13:31:12.442Z,101642.44
2023-05-14T13:33:59.321Z,101648.25
2023-05-14T13:36:44.704Z,101644.16
2023-05-14T13:39:29.887Z,101644.47
2023-05-14T13:42:14.785Z,101640.91
2023-05-14T13:45:00.013Z,101638.50
2023-05-14T13:47:44.880Z,101630.41
2023-05-14T13:50:29.660Z,101633.84
2023-05-14T13:53:14.648Z,101630.06
2023-05-14T13:56:01.618Z,101618.44
2023-05-14T13:58:46.471Z,101627.16
2023-05-14T14:01:31.981Z,101624.28
2023-05-14T14:04:17.644Z,101622.81
2023-05-14T14:07:03.334Z,101618.72
2023-05-14T14:09:48.447Z,101615.22
2023-05-14T14:12:33.607Z,101605.50
2023-05-14T14:15:18.532Z,101606.78
2023-05-14T14:18:03.735Z,101598.56
2023-05-14T14:20:49.085Z,101596.78
2023-05-14T14:23:34.247Z,101594.66
2023-05-14T14:26:19.185Z,101592.06
2023-05-14T14:29:04.260Z,101581.91
2023-05-14T14:31:49.736Z,101568.38
2023-05-14T14:34:35.079Z,101575.94
2023-05-14T14:37:21.307Z,101577.44
2023-05-14T14:40:09.922Z,101578.91
2023-05-14T14:42:55.248Z,101571.31
2023-05-14T14:45:40.518Z,101568.91
2023-05-14T14:48:28.781Z,101567.88
2023-05-14T14:51:13.859Z,101563.94
2023-05-14T14:53:58.851Z,101557.69
2023-05-14T14:56:45.838Z,101546.09
2023-05-14T14:59:30.992Z,101560.31
2023-05-14T15:02:16.242Z,101550.66
2023-05-14T15:05:01.641Z,101555.38
2023-05-14T15:07:46.794Z,101556.94
2023-05-14T15:10:32.131Z,101551.56
2023-05-14T15:13:17.590Z,101536.56
2023-05-14T15:16:02.758Z,101546.25
2023-05-14T15:18:47.833Z,101535.72
2023-05-14T15:21:33.970Z,101537.75
2023-05-14T15:24:19.349Z,101526.75
2023-05-14T15:27:04.720Z,101524.44
2023-05-14T15:29:49.889Z,101523.78
2023-05-14T15:32:34.896Z,101516.09
2023-05-14T15:35:20.128Z,101504.56
2023-05-14T15:38:06.892Z,101493.53
2023-05-14T15:40:51.932Z,101487.88
2023-05-14T15:43:37.070Z,101488.38
2023-05-14T15:46:23.474Z,101489.31
2023-05-14T15:49:08.506Z,101497.09
2023-05-14T15:51:53.522Z,101494.50
2023-05-14T15:54:38.781Z,101508.03
2023-05-14T15:57:23.948Z,101500.69
2023-05-14T16:00:12.584Z,101501.00
2023-05-14T16:02:57.562Z,101505.16
2023-05-14T16:05:42.989Z,101501.31
2023-05-14T16:08:27.948Z,101493.78
2023-05-14T16:11:12.887Z,101491.47
2023-05-14T16:13:58.433Z,101492.88
2023-05-14T16:16:43.870Z,101493.06
2023-05-14T16:19:29.096Z,101496.44
2023-05-14T16:22:13.943Z,101488.22
2023-05-14T16:25:00.190Z,101485.06
2023-05-14T16:27:46.759Z,101492.28
2023-05-14T16:30:31.818Z,101494.09
2023-05-14T16:33:17.140Z,101487.59
2023-05-14T16:36:02.045Z,101487.59
2023-05-14T16:39:06.225Z,101481.09
2023-05-14T16:41:52.440Z,101490.28
2023-05-14T16:44:37.478Z,101479.59
2023-05-14T16:47:22.936Z,101494.31
2023-05-14T16:50:08.398Z,101483.63
2023-05-14T16:52:53.384Z,101479.28
2023-05-14T16:55:38.563Z,101478.44
2023-05-14T16:58:23.467Z,101473.59
2023-05-14T17:01:09.770Z,101479.59
2023-05-14T17:03:55.295Z,101456.06
2023-05-14T17:06:40.529Z,101471.75
2023-05-14T17:09:25.570Z,101478.59
2023-05-14T17:12:12.780Z,101473.78
2023-05-14T17:14:58.436Z,101462.91
2023-05-14T17:17:43.766Z,101468.75
2023-05-14T17:20:28.987Z,101444.66
2023-05-14T17:23:14.140Z,101453.53
2023-05-14T17:25:59.403Z,101463.91
2023-05-14T17:28:44.773Z,101457.84
2023-05-14T17:31:29.768Z,101447.66
2023-05-14T17:34:15.310Z,101456.00
2023-05-14T17:37:00.939Z,101456.94
2023-05-14T17:39:45.918Z,101447.41
2023-05-14T17:42:31.100Z,101449.72
2023-05-14T17:45:20.565Z,101461.06
2023-05-14T17:48:05.946Z,101460.00
2023-05-14T17:50:54.174Z,101443.97
2023-05-14T17:53:39.100Z,101458.69
2023-05-14T17:56:24.619Z,101456.41
2023-05-14T17:59:09.774Z,101455.06
2023-05-14T18:01:54.769Z,101452.66
2023-05-14T18:04:39.787Z,101451.53
2023-05-14T18:07:24.954Z,101447.81
2023-05-14T18:10:10.483Z,101450.44
2023-05-14T18:12:56.239Z,101454.22
2023-05-14T18:15:41.476Z,101451.94
2023-05-14T18:18:26.778Z,101456.47
2023-05-14T18:21:11.900Z,101448.69
2023-05-14T18:23:56.895Z,101457.22
2023-05-14T18:26:42.319Z,101459.09
2023-05-14T18:29:27.829Z,101459.63
2023-05-14T18:32:12.973Z,101446.00
2023-05-14T18:34:58.045Z,101452.69
2023-05-14T18:37:43.093Z,101449.25
2023-05-14T18:40:28.148Z,101441.94
2023-05-14T18:43:13.552Z,101455.56
2023-05-14T18:45:58.917Z,101442.69
2023-05-14T18:48:44.239Z,101459.00
2023-05-14T18:51:29.567Z,101460.69
2023-05-14T18:54:14.613Z,101458.31
2023-05-14T18:57:00.756Z,101465.91
2023-05-14T18:59:45.774Z,101464.47
2023-05-14T19:02:31.275Z,101460.69
2023-05-14T19:05:16.540Z,101445.75
2023-05-14T19:08:01.918Z,101455.50
2023-05-14T19:10:47.086Z,101454.53
2023-05-14T19:13:32.376Z,101452.41
2023-05-14T19:16:17.529Z,101443.81
2023-05-14T19:19:03.127Z,101455.41
2023-05-14T19:21:48.044Z,101462.75
2023-05-14T19:24:33.172Z,101462.31
2023-05-14T19:27:18.400Z,101456.31
2023-05-14T19:30:03.811Z,101445.75
2023-05-14T19:32:49.278Z,101444.63
2023-05-14T19:35:34.590Z,101448.25
2023-05-14T19:38:19.760Z,101460.09
2023-05-14T19:41:04.755Z,101457.38
2023-05-14T19:43:49.701Z,101467.41
2023-05-14T19:46:35.113Z,101466.16
2023-05-14T19:49:20.307Z,101463.78
2023-05-14T19:52:05.701Z,101464.69
2023-05-14T19:54:50.829Z,101472.81
2023-05-14T19:57:37.153Z,101472.38
2023-05-14T20:00:22.839Z,101470.72
2023-05-14T20:03:07.983Z,101447.00
2023-05-14T20:05:54.057Z,101470.56
2023-05-14T20:08:39.040Z,101466.53
2023-05-14T20:11:24.085Z,101459.47
2023-05-14T20:14:09.111Z,101448.53
2023-05-14T20:16:54.088Z,101468.34
2023-05-14T20:19:39.165Z,101464.41
2023-05-14T20:22:23.925Z,101466.47
2023-05-14T20:25:10.041Z,101467.22
2023-05-14T20:27:55.454Z,101467.59
2023-05-14T20:30:40.683Z,101467.13
2023-05-14T20:33:26.399Z,101466.31
2023-05-14T20:36:11.745Z,101448.53
2023-05-14T20:38:57.107Z,101446.34
2023-05-14T20:41:42.076Z,101436.88
2023-05-14T20:44:27.126Z,101467.09
2023-05-14T20:47:16.259Z,101463.03
2023-05-14T20:50:01.698Z,101459.19
2023-05-14T20:52:46.816Z,101459.31
2023-05-14T20:55:32.307Z,101460.75
2023-05-14T20:58:17.190Z,101459.44
2023-05-14T21:01:03.410Z,101448.38
2023-05-14T21:03:48.577Z,101460.28
2023-05-14T21:06:33.691Z,101454.03
2023-05-14T21:09:20.843Z,101455.25
2023-05-14T21:12:06.344Z,101445.25
2023-05-14T21:14:51.605Z,101453.09
2023-05-14T21:17:36.511Z,101456.66
2023-05-14T21:20:21.534Z,101445.50
2023-05-14T21:23:06.651Z,101451.25
2023-05-14T21:25:54.589Z,101449.81
2023-05-14T21:28:39.928Z,101448.13
2023-05-14T21:31:25.175Z,101444.63
2023-05-14T21:34:10.617Z,101453.28
2023-05-14T21:36:56.035Z,101443.94
2023-05-14T21:39:41.129Z,101442.47
2023-05-14T21:42:26.192Z,101427.56
2023-05-14T21:45:11.339Z,101432.84
2023-05-14T21:47:56.731Z,101435.38
2023-05-14T21:50:42.355Z,101438.25
2023-05-14T21:53:27.346Z,101425.97
2023-05-14T21:56:12.288Z,101425.53
2023-05-14T21:58:57.218Z,101434.78
2023-05-14T22:02:04.856Z,101427.81
2023-05-14T22:04:47.674Z,101421.91
2023-05-14T22:07:32.826Z,101439.66
2023-05-14T22:10:18.981Z,101419.13
2023-05-14T22:13:04.146Z,101438.94
2023-05-14T22:15:51.386Z,101439.31
2023-05-14T22:18:40.823Z,101429.94
2023-05-14T22:21:25.917Z,101435.34
2023-05-14T22:24:10.785Z,101410.47
2023-05-14T22:26:56.001Z,101431.50
2023-05-14T22:29:41.488Z,101424.16
2023-05-14T22:32:26.793Z,101428.59
2023-05-14T22:35:12.693Z,101429.06
2023-05-14T22:37:57.878Z,101423.16
2023-05-14T22:40:42.957Z,101428.56
2023-05-14T22:43:28.011Z,101415.59
2023-05-14T22:46:13.405Z,101420.84
2023-05-14T22:48:58.662Z,101408.59
2023-05-14T22:51:43.833Z,101414.34
2023-05-14T22:54:28.667Z,101429.09
2023-05-14T22:57:13.684Z,101417.59
2023-05-14T22:59:58.961Z,101414.47
2023-05-14T23:02:44.479Z,101422.50
2023-05-14T23:05:29.893Z,101411.09
2023-05-14T23:08:14.741Z,101413.75
2023-05-14T23:11:00.847Z,101416.47
2023-05-14T23:13:46.161Z,101405.44
2023-05-14T23:16:31.830Z,101410.94
2023-05-14T23:19:17.251Z,101407.34
2023-05-14T23:22:02.723Z,101415.75
2023-05-14T23:24:48.061Z,101404.25
2023-05-14T23:27:34.189Z,101403.19
2023-05-14T23:30:19.443Z,101401.50
2023-05-14T23:33:04.839Z,101389.63
2023-05-14T23:35:52.043Z,101407.41
2023-05-14T23:38:37.618Z,101394.06
2023-05-14T23:41:22.794Z,101391.75
2023-05-14T23:44:07.720Z,101403.94
2023-05-14T23:46:53.036Z,101404.03
2023-05-14T23:49:40.775Z,101399.81
2023-05-14T23:52:25.733Z,101400.06
2023-05-14T23:55:10.714Z,101402.78
2023-05-14T23:57:55.712Z,101383.84
